CheckWX is a tool to help pilots better visualize weather data.  It is not intended as a substitute for an official pre-flight weather briefing.

12:05:49 UTC

KGNV TAF
Gainesville Regional Airport
Gainesville, Florida, USA
KGNV 201120Z 2012/2112 10005KT P6SM FEW080 BKN250 FM201800 10008KT P6SM VCTS SCT050CB BKN100 BKN250 TEMPO 2019/2023 VRB10G20KT 3SM TSRA BKN030CB FM210300 VRB02KT P6SM BKN250

Aug-20@
12:00 UTC

Aug-20 @ 12:00 UTC

Aug-20@
18:00 UTC

Aug-20 @ 18:00 UTC

KGNV 201120Z 2012/2112 10005KT P6SM FEW080 BKN250
Wind
  • 100° at 5 KTS
Cloud Levels
  • Few at 8,000' AGL
  • Broken at 25,000' AGL

Aug-20@
18:00 UTC

Aug-20 @ 18:00 UTC

Aug-21@
03:00 UTC

Aug-21 @ 03:00 UTC

FM201800 10008KT P6SM VCTS SCT050CB BKN100 BKN250

From

From Standard forecast or significant change

Wind
  • 100° at 8 KTS
Conditions
Area Thunderstorm
Cloud Levels
  • Scattered at 5,000' AGL
  • Broken at 10,000' AGL
  • Broken at 25,000' AGL

Aug-20@
19:00 UTC

Aug-20 @ 19:00 UTC

Aug-20@
23:00 UTC

Aug-20 @ 23:00 UTC

TEMPO 2019/2023 VRB10G20KT 3SM TSRA BKN030CB

Temporary

Temporary Changes expected for less than half the time period

Wind
  • Variable at 10 KTS
  • {Gusting to 20 KTS
Conditions
Thunderstorm, Rain
Cloud Levels
  • Broken at 3,000' AGL

Aug-21@
03:00 UTC

Aug-21 @ 03:00 UTC

Aug-21@
12:00 UTC

Aug-21 @ 12:00 UTC

FM210300 VRB02KT P6SM BKN250

From

From Standard forecast or significant change

Wind
  • Variable at 2 KTS
Cloud Levels
  • Broken at 25,000' AGL